createdAt,value
2022-10-11T00:02:20.168Z,3.18
2022-10-11T00:04:48.823Z,2.75
2022-10-11T00:07:18.392Z,2.48
2022-10-11T00:09:46.509Z,2.58
2022-10-11T00:12:14.106Z,2.67
2022-10-11T00:14:42.134Z,2.69
2022-10-11T00:17:09.999Z,2.75
2022-10-11T00:19:38.292Z,2.77
2022-10-11T00:22:05.869Z,2.59
2022-10-11T00:24:34.996Z,2.61
2022-10-11T00:27:02.541Z,2.72
2022-10-11T00:29:30.720Z,2.63
2022-10-11T00:31:58.475Z,2.49
2022-10-11T00:34:26.605Z,2.55
2022-10-11T00:36:54.174Z,2.50
2022-10-11T00:39:22.166Z,2.41
2022-10-11T00:41:51.488Z,2.54
2022-10-11T00:44:21.485Z,2.43
2022-10-11T00:46:55.908Z,2.37
2022-10-11T00:49:32.907Z,2.30
2022-10-11T00:52:07.066Z,2.14
2022-10-11T00:54:39.432Z,2.03
2022-10-11T00:57:10.527Z,2.06
2022-10-11T00:59:44.258Z,2.12
2022-10-11T01:02:13.353Z,2.02
2022-10-11T01:04:42.190Z,2.09
2022-10-11T01:07:10.435Z,2.14
2022-10-11T01:09:38.433Z,2.23
2022-10-11T01:12:17.384Z,2.29
2022-10-11T01:15:13.380Z,2.32
2022-10-11T01:17:49.981Z,2.21
2022-10-11T01:20:45.344Z,2.23
2022-10-11T01:23:54.133Z,2.23
2022-10-11T01:26:39.444Z,2.24
2022-10-11T01:29:18.074Z,2.10
2022-10-11T01:31:54.063Z,1.89
2022-10-11T01:34:27.508Z,2.03
2022-10-11T01:37:04.812Z,2.22
2022-10-11T01:39:38.581Z,1.97
2022-10-11T01:42:09.158Z,1.97
2022-10-11T01:44:39.440Z,2.14
2022-10-11T01:47:08.663Z,2.20
2022-10-11T01:49:36.808Z,2.08
2022-10-11T01:52:06.342Z,1.88
2022-10-11T01:55:08.537Z,1.95
2022-10-11T01:57:58.825Z,2.23
2022-10-11T02:00:36.417Z,2.19
2022-10-11T02:03:19.373Z,2.10
2022-10-11T02:05:52.417Z,2.23
2022-10-11T02:08:27.207Z,2.17
2022-10-11T02:11:01.641Z,1.93
2022-10-11T02:13:38.771Z,2.02
2022-10-11T02:16:11.260Z,2.04
2022-10-11T02:18:42.969Z,1.89
2022-10-11T02:21:12.887Z,1.88
2022-10-11T02:23:45.662Z,1.93
2022-10-11T02:26:14.835Z,1.85
2022-10-11T02:28:44.909Z,1.94
2022-10-11T02:31:15.558Z,1.98
2022-10-11T02:33:48.042Z,1.89
2022-10-11T02:36:24.871Z,1.73
2022-10-11T02:38:59.251Z,1.63
2022-10-11T02:41:32.384Z,1.80
2022-10-11T02:44:05.165Z,1.66
2022-10-11T02:46:34.599Z,1.53
2022-10-11T02:49:04.003Z,1.56
2022-10-11T02:51:32.317Z,1.59
2022-10-11T02:54:02.151Z,1.38
2022-10-11T02:56:30.045Z,1.31
2022-10-11T02:58:57.613Z,1.36
2022-10-11T03:01:25.553Z,1.36
2022-10-11T03:03:53.195Z,1.36
2022-10-11T03:06:22.757Z,1.42
2022-10-11T03:08:50.818Z,1.60
2022-10-11T03:11:18.589Z,1.56
2022-10-11T03:13:46.256Z,1.50
2022-10-11T03:16:14.278Z,1.55
2022-10-11T03:18:42.509Z,1.71
2022-10-11T03:21:10.562Z,1.68
2022-10-11T03:23:39.938Z,1.61
2022-10-11T03:26:08.562Z,1.58
2022-10-11T03:28:37.515Z,1.59
2022-10-11T03:31:05.420Z,1.60
2022-10-11T03:33:33.040Z,1.52
2022-10-11T03:36:00.628Z,1.44
2022-10-11T03:38:28.447Z,1.27
2022-10-11T03:40:57.517Z,1.36
2022-10-11T03:43:25.120Z,1.39
2022-10-11T03:45:52.855Z,1.49
2022-10-11T03:48:23.289Z,1.49
2022-10-11T03:50:51.360Z,1.29
2022-10-11T03:53:19.263Z,1.17
2022-10-11T03:55:46.886Z,1.14
2022-10-11T03:58:15.900Z,1.24
2022-10-11T04:00:43.731Z,1.34
2022-10-11T04:03:11.423Z,1.32
2022-10-11T04:05:39.535Z,1.22
2022-10-11T04:08:11.221Z,1.18
2022-10-11T04:10:41.212Z,1.17
2022-10-11T04:13:10.140Z,1.15
2022-10-11T04:15:39.688Z,1.15
2022-10-11T04:18:08.227Z,1.15
2022-10-11T04:20:38.420Z,1.04
2022-10-11T04:23:06.034Z,0.98
2022-10-11T04:25:33.889Z,0.94
2022-10-11T04:28:01.995Z,0.97
2022-10-11T04:30:30.229Z,1.01
2022-10-11T04:32:59.271Z,1.06
2022-10-11T04:35:27.695Z,1.20
2022-10-11T04:37:55.436Z,1.35
2022-10-11T04:40:23.179Z,1.39
2022-10-11T04:42:50.805Z,1.41
2022-10-11T04:45:18.664Z,1.47
2022-10-11T04:47:47.141Z,1.56
2022-10-11T04:50:16.505Z,1.64
2022-10-11T04:52:44.220Z,1.70
2022-10-11T04:55:12.165Z,1.73
2022-10-11T04:57:40.136Z,1.83
2022-10-11T05:00:08.984Z,1.95
2022-10-11T05:02:37.112Z,2.05
2022-10-11T05:05:06.035Z,2.17
2022-10-11T05:07:36.988Z,2.30
2022-10-11T05:10:05.580Z,2.48
2022-10-11T05:12:33.863Z,2.70
2022-10-11T05:15:01.812Z,2.84
2022-10-11T05:17:29.561Z,3.04
2022-10-11T05:19:57.075Z,3.21
2022-10-11T05:22:24.892Z,3.35
2022-10-11T05:24:53.936Z,3.47
2022-10-11T05:27:21.687Z,3.57
2022-10-11T05:29:50.016Z,3.72
2022-10-11T05:32:17.793Z,3.85
2022-10-11T05:34:46.095Z,4.04
2022-10-11T05:37:13.813Z,4.24
2022-10-11T05:39:41.530Z,4.47
2022-10-11T05:42:11.183Z,4.67
2022-10-11T05:44:38.863Z,4.84
2022-10-11T05:47:06.631Z,5.07
2022-10-11T05:49:34.224Z,5.25
2022-10-11T05:52:01.792Z,5.44
2022-10-11T05:54:30.350Z,5.60
2022-10-11T05:56:57.891Z,5.75
2022-10-11T05:59:26.924Z,5.96
2022-10-11T06:01:54.851Z,6.09
2022-10-11T06:04:24.018Z,6.30
2022-10-11T06:06:52.665Z,6.46
2022-10-11T06:09:20.440Z,6.66
2022-10-11T06:11:48.274Z,6.86
2022-10-11T06:14:16.785Z,7.03
2022-10-11T06:16:45.848Z,7.24
2022-10-11T06:19:16.301Z,7.40
2022-10-11T06:21:43.887Z,7.59
2022-10-11T06:24:12.789Z,7.76
2022-10-11T06:26:41.501Z,7.98
2022-10-11T06:29:09.347Z,8.15
2022-10-11T06:31:37.192Z,8.31
2022-10-11T06:34:06.408Z,8.45
2022-10-11T06:36:34.166Z,8.64
2022-10-11T06:39:02.162Z,8.85
2022-10-11T06:41:30.819Z,9.04
2022-10-11T06:43:59.123Z,9.18
2022-10-11T06:46:28.277Z,9.33
2022-10-11T06:48:56.144Z,9.53
2022-10-11T06:51:25.553Z,9.67
2022-10-11T06:53:56.579Z,9.77
2022-10-11T06:56:25.765Z,9.88
2022-10-11T06:58:53.665Z,9.96
2022-10-11T07:01:21.959Z,10.10
2022-10-11T07:03:50.786Z,10.23
2022-10-11T07:06:21.979Z,10.34
2022-10-11T07:08:51.389Z,10.47
2022-10-11T07:11:21.312Z,10.61
2022-10-11T07:13:51.755Z,10.69
2022-10-11T07:16:21.113Z,10.76
2022-10-11T07:18:59.559Z,10.89
2022-10-11T07:21:29.225Z,10.96
2022-10-11T07:23:58.994Z,11.03
2022-10-11T07:26:26.779Z,11.17
2022-10-11T07:28:54.696Z,11.24
2022-10-11T07:31:26.686Z,11.32
2022-10-11T07:33:54.506Z,11.45
2022-10-11T07:36:23.422Z,11.59
2022-10-11T07:38:51.735Z,11.70
2022-10-11T07:41:21.199Z,11.82
2022-10-11T07:43:48.967Z,11.97
2022-10-11T07:46:17.531Z,12.11
2022-10-11T07:48:48.580Z,12.15
2022-10-11T07:51:19.546Z,12.27
2022-10-11T07:53:48.836Z,12.40
2022-10-11T07:56:18.575Z,12.43
2022-10-11T07:58:51.016Z,12.53
2022-10-11T08:01:19.668Z,12.60
2022-10-11T08:03:47.800Z,12.77
2022-10-11T08:06:18.220Z,12.79
2022-10-11T08:08:45.961Z,12.84
2022-10-11T08:11:21.437Z,12.94
2022-10-11T08:13:52.634Z,12.94
2022-10-11T08:16:21.013Z,13.00
2022-10-11T08:18:48.968Z,13.19
2022-10-11T08:21:18.568Z,13.27
2022-10-11T08:23:46.286Z,13.25
2022-10-11T08:26:14.344Z,13.41
2022-10-11T08:28:42.134Z,13.52
2022-10-11T08:31:15.837Z,13.52
2022-10-11T08:33:43.904Z,13.59
2022-10-11T08:36:12.753Z,13.65
2022-10-11T08:38:40.986Z,13.76
2022-10-11T08:41:30.077Z,13.77
2022-10-11T08:44:10.785Z,13.88
2022-10-11T08:46:44.594Z,13.93
2022-10-11T08:49:13.955Z,13.98
2022-10-11T08:51:45.424Z,14.08
2022-10-11T08:54:20.107Z,14.09
2022-10-11T08:56:49.578Z,14.11
2022-10-11T08:59:30.141Z,14.16
2022-10-11T09:02:09.629Z,14.19
2022-10-11T09:04:37.456Z,14.29
2022-10-11T09:07:17.326Z,14.33
2022-10-11T09:10:01.411Z,14.34
2022-10-11T09:12:41.000Z,14.40
2022-10-11T09:15:24.691Z,14.43
2022-10-11T09:18:15.386Z,14.40
2022-10-11T09:20:52.862Z,14.51
2022-10-11T09:23:37.908Z,14.53
2022-10-11T09:26:11.516Z,14.48
2022-10-11T09:28:50.889Z,14.53
2022-10-11T09:31:18.996Z,14.61
2022-10-11T09:33:50.475Z,14.72
2022-10-11T09:36:25.804Z,14.80
2022-10-11T09:39:06.521Z,14.80
2022-10-11T09:41:38.626Z,14.70
2022-10-11T09:44:07.318Z,14.63
2022-10-11T09:46:37.858Z,14.65
2022-10-11T09:49:12.284Z,14.67
2022-10-11T09:51:43.761Z,14.73
2022-10-11T09:54:11.596Z,14.84
2022-10-11T09:56:43.460Z,14.85
2022-10-11T09:59:26.745Z,14.82
2022-10-11T10:02:19.515Z,14.88
2022-10-11T10:05:18.051Z,14.98
2022-10-11T10:08:05.850Z,15.00
2022-10-11T10:10:37.557Z,15.06
2022-10-11T10:13:21.367Z,15.06
2022-10-11T10:15:55.549Z,14.98
2022-10-11T10:18:30.199Z,15.02
2022-10-11T10:21:00.232Z,15.05
2022-10-11T10:23:30.487Z,15.08
2022-10-11T10:26:13.519Z,15.13
2022-10-11T10:28:55.431Z,15.17
2022-10-11T10:31:25.489Z,15.16
2022-10-11T10:33:56.006Z,15.20
2022-10-11T10:36:28.976Z,15.22
2022-10-11T10:39:04.988Z,15.32
2022-10-11T10:41:32.845Z,15.42
2022-10-11T10:44:01.045Z,15.46
2022-10-11T10:46:47.054Z,15.55
2022-10-11T10:49:53.115Z,15.70
2022-10-11T10:52:33.537Z,15.74
2022-10-11T10:55:23.467Z,15.76
2022-10-11T10:58:21.274Z,15.75
2022-10-11T11:00:53.849Z,15.70
2022-10-11T11:03:26.618Z,15.66
2022-10-11T11:06:01.908Z,15.68
2022-10-11T11:08:51.169Z,15.67
2022-10-11T11:11:35.153Z,15.71
2022-10-11T11:14:12.737Z,15.72
2022-10-11T11:16:47.955Z,15.72
2022-10-11T11:19:30.162Z,15.78
2022-10-11T11:22:03.757Z,15.81
2022-10-11T11:24:44.541Z,15.90
2022-10-11T11:27:26.378Z,15.93
2022-10-11T11:30:03.364Z,15.94
2022-10-11T11:32:45.831Z,15.97
2022-10-11T11:35:26.681Z,16.03
2022-10-11T11:38:06.059Z,15.99
2022-10-11T11:40:39.285Z,16.00
2022-10-11T11:43:13.761Z,15.98
2022-10-11T11:45:48.677Z,15.96
2022-10-11T11:48:19.432Z,15.93
2022-10-11T11:50:53.504Z,15.94
2022-10-11T11:53:31.628Z,15.91
2022-10-11T11:56:05.107Z,15.93
2022-10-11T11:58:39.518Z,15.92
2022-10-11T12:01:18.863Z,15.99
2022-10-11T12:03:52.346Z,16.02
2022-10-11T12:06:28.666Z,16.10
2022-10-11T12:09:05.272Z,16.12
2022-10-11T12:11:51.304Z,16.15
2022-10-11T12:14:38.578Z,16.14
2022-10-11T12:17:14.212Z,15.98
2022-10-11T12:20:01.496Z,15.95
2022-10-11T12:23:00.601Z,15.95
2022-10-11T12:25:38.139Z,15.93
2022-10-11T12:28:39.113Z,15.91
2022-10-11T12:31:19.193Z,15.91
2022-10-11T12:33:53.593Z,15.88
2022-10-11T12:36:39.065Z,15.79
2022-10-11T12:39:46.604Z,15.71
2022-10-11T12:42:28.068Z,15.70
2022-10-11T12:45:30.937Z,15.70
2022-10-11T12:48:17.473Z,15.59
2022-10-11T12:51:03.214Z,15.56
2022-10-11T12:54:08.223Z,15.53
2022-10-11T12:56:48.612Z,15.63
2022-10-11T12:59:21.372Z,15.62
2022-10-11T13:01:52.472Z,15.61
2022-10-11T13:04:30.468Z,15.52
2022-10-11T13:07:06.429Z,15.58
2022-10-11T13:09:39.104Z,15.53
2022-10-11T13:12:11.755Z,15.47
2022-10-11T13:14:45.894Z,15.39
2022-10-11T13:17:17.224Z,15.38
2022-10-11T13:19:46.381Z,15.38
2022-10-11T13:22:18.599Z,15.39
2022-10-11T13:24:46.328Z,15.42
2022-10-11T13:27:21.289Z,15.43
2022-10-11T13:29:50.907Z,15.36
2022-10-11T13:32:21.617Z,15.37
2022-10-11T13:37:26.323Z,15.15
2022-10-11T13:39:55.335Z,15.11
2022-10-11T13:42:28.357Z,15.08
2022-10-11T13:44:57.147Z,15.03
2022-10-11T13:47:28.075Z,15.02
2022-10-11T13:50:08.856Z,15.01
2022-10-11T13:52:36.648Z,14.94
2022-10-11T13:55:21.808Z,14.84
2022-10-11T13:57:51.102Z,14.76
2022-10-11T14:00:24.465Z,14.73
2022-10-11T14:02:57.530Z,14.64
2022-10-11T14:05:30.622Z,14.59
2022-10-11T14:08:00.926Z,14.47
2022-10-11T14:10:31.073Z,14.37
2022-10-11T14:13:07.061Z,14.28
2022-10-11T14:15:36.877Z,14.20
2022-10-11T14:18:36.871Z,14.16
2022-10-11T14:21:30.143Z,14.05
2022-10-11T14:23:59.779Z,14.03
2022-10-11T14:26:32.920Z,13.93
2022-10-11T14:29:02.778Z,13.85
2022-10-11T14:31:32.001Z,13.76
2022-10-11T14:33:59.804Z,13.71
2022-10-11T14:36:28.894Z,13.62
2022-10-11T14:38:57.791Z,13.54
2022-10-11T14:41:26.368Z,13.45
2022-10-11T14:43:54.271Z,13.37
2022-10-11T14:46:24.681Z,13.31
2022-10-11T14:48:55.836Z,13.20
2022-10-11T14:51:29.523Z,13.04
2022-10-11T14:53:58.652Z,12.93
2022-10-11T14:56:26.515Z,12.88
2022-10-11T14:58:54.162Z,12.73
2022-10-11T15:01:22.180Z,12.63
2022-10-11T15:03:50.076Z,12.54
2022-10-11T15:06:20.561Z,12.45
2022-10-11T15:08:48.446Z,12.36
2022-10-11T15:11:19.750Z,12.23
2022-10-11T15:13:47.893Z,12.13
2022-10-11T15:16:18.541Z,12.04
2022-10-11T15:18:47.067Z,11.92
2022-10-11T15:21:14.882Z,11.78
2022-10-11T15:23:42.504Z,11.69
2022-10-11T15:26:11.789Z,11.60
2022-10-11T15:28:41.227Z,11.56
2022-10-11T15:31:09.571Z,11.44
2022-10-11T15:33:38.958Z,11.33
2022-10-11T15:36:08.724Z,11.23
2022-10-11T15:38:36.815Z,11.14
2022-10-11T15:41:04.972Z,11.02
2022-10-11T15:43:32.904Z,10.99
2022-10-11T15:46:02.212Z,10.84
2022-10-11T15:48:30.330Z,10.64
2022-10-11T15:50:58.214Z,10.46
2022-10-11T15:53:27.914Z,10.33
2022-10-11T15:55:57.439Z,10.02
2022-10-11T15:58:28.405Z,9.93
2022-10-11T16:00:57.702Z,9.79
2022-10-11T16:03:29.165Z,9.75
2022-10-11T16:06:03.838Z,9.68
2022-10-11T16:08:32.959Z,9.63
2022-10-11T16:11:01.205Z,9.48
2022-10-11T16:13:28.859Z,9.46
2022-10-11T16:15:57.153Z,9.46
2022-10-11T16:18:26.150Z,9.42
2022-10-11T16:20:53.782Z,9.41
2022-10-11T16:23:22.040Z,9.38
2022-10-11T16:25:58.018Z,9.24
2022-10-11T16:28:26.990Z,9.16
2022-10-11T16:30:55.264Z,9.18
2022-10-11T16:33:22.999Z,9.21
2022-10-11T16:35:52.077Z,9.20
2022-10-11T16:38:19.618Z,8.94
2022-10-11T16:40:47.235Z,8.86
2022-10-11T16:43:15.062Z,8.81
2022-10-11T16:45:43.247Z,8.69
2022-10-11T16:48:10.893Z,8.65
2022-10-11T16:50:39.819Z,8.46
2022-10-11T16:53:09.376Z,8.39
2022-10-11T16:55:39.751Z,8.23
2022-10-11T16:58:07.318Z,7.92
2022-10-11T17:00:38.010Z,8.07
2022-10-11T17:03:05.826Z,8.18
2022-10-11T17:05:36.149Z,8.15
2022-10-11T17:08:05.475Z,7.89
2022-10-11T17:10:37.001Z,7.81
2022-10-11T17:13:04.734Z,7.86
2022-10-11T17:15:33.321Z,7.65
2022-10-11T17:18:02.767Z,7.58
2022-10-11T17:20:30.443Z,7.40
2022-10-11T17:22:58.119Z,7.23
2022-10-11T17:25:26.113Z,7.37
2022-10-11T17:27:57.325Z,7.17
2022-10-11T17:30:25.681Z,7.10
2022-10-11T17:32:53.517Z,6.95
2022-10-11T17:35:21.599Z,6.94
2022-10-11T17:37:49.311Z,7.06
2022-10-11T17:40:17.238Z,7.04
2022-10-11T17:42:44.986Z,7.02
2022-10-11T17:45:14.092Z,6.94
2022-10-11T17:47:42.461Z,6.96
2022-10-11T17:50:10.507Z,6.92
2022-10-11T17:52:38.469Z,6.99
2022-10-11T17:55:06.591Z,6.74
2022-10-11T17:57:35.015Z,6.49
2022-10-11T18:00:04.698Z,6.47
2022-10-11T18:02:33.874Z,6.57
2022-10-11T18:05:01.480Z,6.44
2022-10-11T18:07:29.206Z,6.51
2022-10-11T18:09:56.983Z,6.37
2022-10-11T18:12:24.917Z,6.36
2022-10-11T18:14:52.584Z,6.44
2022-10-11T18:17:21.450Z,6.31
2022-10-11T18:19:50.672Z,6.39
2022-10-11T18:22:18.359Z,6.40
2022-10-11T18:24:46.095Z,6.26
2022-10-11T18:27:13.640Z,6.14
2022-10-11T18:29:41.696Z,6.17
2022-10-11T18:32:09.677Z,6.13
2022-10-11T18:34:37.308Z,6.12
2022-10-11T18:37:06.314Z,6.13
2022-10-11T18:39:34.171Z,6.16
2022-10-11T18:42:01.732Z,5.96
2022-10-11T18:44:30.093Z,6.05
2022-10-11T18:46:58.105Z,6.00
2022-10-11T18:49:25.690Z,5.89
2022-10-11T18:51:53.268Z,5.83
2022-10-11T18:54:22.525Z,5.79
2022-10-11T18:56:50.299Z,5.72
2022-10-11T18:59:18.351Z,5.76
2022-10-11T19:01:46.429Z,5.68
2022-10-11T19:04:16.101Z,5.67
2022-10-11T19:06:45.601Z,5.62
2022-10-11T19:09:15.427Z,5.50
2022-10-11T19:11:49.129Z,5.47
2022-10-11T19:14:21.227Z,5.29
2022-10-11T19:16:52.316Z,5.27
2022-10-11T19:19:21.707Z,5.28
2022-10-11T19:21:50.969Z,5.35
2022-10-11T19:24:20.885Z,5.26
2022-10-11T19:26:50.073Z,5.11
2022-10-11T19:29:19.880Z,4.96
2022-10-11T19:31:49.252Z,4.76
2022-10-11T19:34:17.111Z,4.93
2022-10-11T19:36:45.052Z,4.94
2022-10-11T19:39:14.347Z,4.85
2022-10-11T19:41:42.980Z,4.77
2022-10-11T19:44:13.351Z,4.79
2022-10-11T19:46:51.559Z,4.60
2022-10-11T19:49:22.643Z,4.55
2022-10-11T19:51:50.614Z,4.51
2022-10-11T19:54:18.856Z,4.63
2022-10-11T19:56:47.368Z,4.49
2022-10-11T19:59:16.785Z,4.51
2022-10-11T20:01:49.631Z,4.52
2022-10-11T20:04:51.018Z,4.43
2022-10-11T20:07:08.340Z,4.60
2022-10-11T20:09:36.436Z,4.83
2022-10-11T20:12:04.508Z,4.94
2022-10-11T20:14:33.850Z,4.85
2022-10-11T20:17:03.858Z,4.81
2022-10-11T20:19:31.903Z,4.81
2022-10-11T20:22:00.179Z,4.72
2022-10-11T20:24:28.504Z,4.56
2022-10-11T20:26:56.041Z,4.57
2022-10-11T20:29:24.183Z,4.61
2022-10-11T20:31:53.477Z,4.56
2022-10-11T20:34:21.046Z,4.52
2022-10-11T20:36:49.537Z,4.33
2022-10-11T20:39:17.556Z,4.18
2022-10-11T20:41:45.420Z,4.14
2022-10-11T20:44:12.972Z,4.15
2022-10-11T20:46:40.675Z,4.19
2022-10-11T20:49:13.305Z,4.06
2022-10-11T20:51:42.312Z,4.04
2022-10-11T20:54:11.747Z,4.08
2022-10-11T20:56:40.664Z,4.13
2022-10-11T20:59:08.790Z,4.02
2022-10-11T21:01:38.501Z,3.96
2022-10-11T21:04:08.154Z,3.98
2022-10-11T21:06:38.058Z,4.04
2022-10-11T21:09:05.956Z,3.86
2022-10-11T21:11:33.880Z,3.77
2022-10-11T21:14:03.884Z,3.76
2022-10-11T21:16:32.548Z,3.77
2022-10-11T21:19:02.496Z,3.64
2022-10-11T21:21:30.434Z,3.55
2022-10-11T21:24:01.051Z,3.62
2022-10-11T21:26:29.665Z,3.53
2022-10-11T21:28:58.683Z,3.49
2022-10-11T21:31:31.048Z,3.26
2022-10-11T21:34:01.961Z,3.18
2022-10-11T21:36:30.238Z,3.23
2022-10-11T21:38:59.238Z,3.28
2022-10-11T21:41:27.494Z,3.31
2022-10-11T21:43:54.999Z,3.40
2022-10-11T21:46:41.629Z,3.39
2022-10-11T21:49:12.645Z,3.32
2022-10-11T21:51:40.849Z,3.39
2022-10-11T21:54:10.616Z,3.36
2022-10-11T21:56:38.175Z,3.39
2022-10-11T21:59:08.088Z,3.43
2022-10-11T22:01:39.517Z,3.36
2022-10-11T22:04:07.402Z,3.41
2022-10-11T22:06:35.999Z,3.40
2022-10-11T22:09:03.733Z,3.39
2022-10-11T22:11:33.494Z,3.27
2022-10-11T22:14:04.161Z,3.17
2022-10-11T22:16:33.120Z,3.20
2022-10-11T22:19:03.003Z,3.26
2022-10-11T22:21:31.925Z,3.33
2022-10-11T22:23:59.726Z,3.26
2022-10-11T22:26:30.655Z,3.31
2022-10-11T22:29:00.500Z,3.31
2022-10-11T22:31:30.021Z,3.28
2022-10-11T22:33:59.250Z,3.22
2022-10-11T22:36:27.553Z,3.20
2022-10-11T22:38:56.464Z,3.32
2022-10-11T22:41:24.208Z,3.29
2022-10-11T22:43:52.772Z,3.24
2022-10-11T22:46:21.949Z,3.22
2022-10-11T22:48:49.486Z,3.30
2022-10-11T22:51:17.063Z,3.35
2022-10-11T22:53:45.349Z,3.35
2022-10-11T22:56:13.160Z,3.27
2022-10-11T22:58:41.301Z,3.22
2022-10-11T23:01:10.624Z,3.28
2022-10-11T23:03:40.047Z,3.39
2022-10-11T23:06:08.617Z,3.45
2022-10-11T23:08:36.252Z,3.49
2022-10-11T23:11:05.947Z,3.46
2022-10-11T23:13:34.792Z,3.47
2022-10-11T23:18:40.581Z,3.35
2022-10-11T23:21:10.426Z,3.38
2022-10-11T23:23:37.984Z,3.26
2022-10-11T23:26:08.120Z,3.20
2022-10-11T23:28:36.161Z,3.27
2022-10-11T23:31:08.582Z,3.33
2022-10-11T23:33:36.578Z,3.30
2022-10-11T23:36:06.446Z,3.17
2022-10-11T23:38:34.217Z,3.03
2022-10-11T23:41:01.853Z,2.93
2022-10-11T23:43:29.795Z,2.95
2022-10-11T23:45:57.351Z,2.98
2022-10-11T23:48:25.222Z,3.04
2022-10-11T23:50:52.834Z,2.98
2022-10-11T23:53:22.145Z,2.88
2022-10-11T23:55:49.984Z,2.83
2022-10-11T23:58:17.575Z,2.82
